createdAt,value
2022-08-07T00:00:36.277Z,100297.09
2022-08-07T00:03:07.117Z,100296.28
2022-08-07T00:05:36.207Z,100293.81
2022-08-07T00:08:04.980Z,100302.09
2022-08-07T00:10:34.703Z,100296.06
2022-08-07T00:13:23.507Z,100299.84
2022-08-07T00:15:51.864Z,100296.34
2022-08-07T00:18:24.413Z,100299.91
2022-08-07T00:20:53.320Z,100299.03
2022-08-07T00:23:21.219Z,100301.69
2022-08-07T00:25:52.436Z,100292.78
2022-08-07T00:28:33.599Z,100295.47
2022-08-07T00:31:12.441Z,100284.84
2022-08-07T00:33:43.208Z,100292.91
2022-08-07T00:36:13.987Z,100288.44
2022-08-07T00:38:40.504Z,100283.94
2022-08-07T00:41:09.996Z,100283.00
2022-08-07T00:44:02.024Z,100282.91
2022-08-07T00:46:28.001Z,100282.88
2022-08-07T00:48:54.517Z,100289.16
2022-08-07T00:51:21.567Z,100283.78
2022-08-07T00:53:50.522Z,100283.69
2022-08-07T00:56:23.238Z,100284.66
2022-08-07T00:58:57.568Z,100290.09
2022-08-07T01:01:26.921Z,100286.75
2022-08-07T01:03:55.894Z,100284.25
2022-08-07T01:06:28.412Z,100283.47
2022-08-07T01:08:56.270Z,100285.41
2022-08-07T01:12:23.671Z,100283.81
2022-08-07T01:14:12.787Z,100275.97
2022-08-07T01:16:47.382Z,100284.16
2022-08-07T01:19:18.858Z,100280.19
2022-08-07T01:21:49.302Z,100282.19
2022-08-07T01:24:21.365Z,100274.44
2022-08-07T01:26:51.996Z,100282.56
2022-08-07T01:29:20.343Z,100280.06
2022-08-07T01:31:49.535Z,100286.34
2022-08-07T01:34:17.978Z,100284.63
2022-08-07T01:36:57.862Z,100276.81
2022-08-07T01:39:40.952Z,100275.19
2022-08-07T01:42:38.210Z,100278.94
2022-08-07T01:45:01.415Z,100279.91
2022-08-07T01:48:20.351Z,100281.00
2022-08-07T01:50:16.847Z,100281.84
2022-08-07T01:52:58.705Z,100283.75
2022-08-07T01:55:33.496Z,100278.31
2022-08-07T01:58:06.610Z,100285.50
2022-08-07T02:01:09.476Z,100279.47
2022-08-07T02:03:48.752Z,100281.41
2022-08-07T02:06:31.777Z,100279.69
2022-08-07T02:09:03.787Z,100281.53
2022-08-07T02:12:02.830Z,100282.56
2022-08-07T02:14:36.178Z,100286.28
2022-08-07T02:17:07.613Z,100282.84
2022-08-07T02:20:05.279Z,100290.88
2022-08-07T02:22:25.988Z,100296.56
2022-08-07T02:24:56.003Z,100288.81
2022-08-07T02:27:25.068Z,100285.34
2022-08-07T02:29:54.806Z,100283.63
2022-08-07T02:32:29.855Z,100287.16
2022-08-07T02:34:58.702Z,100284.44
2022-08-07T02:37:28.547Z,100289.69
2022-08-07T02:40:30.237Z,100289.69
2022-08-07T02:42:50.581Z,100292.47
2022-08-07T02:45:58.827Z,100286.28
2022-08-07T02:48:10.012Z,100284.47
2022-08-07T02:50:41.207Z,100277.31
2022-08-07T02:53:12.147Z,100272.03
2022-08-07T02:56:04.054Z,100279.13
2022-08-07T02:58:33.449Z,100284.47
2022-08-07T03:01:02.067Z,100284.47
2022-08-07T03:03:49.174Z,100290.69
2022-08-07T03:06:25.801Z,100291.50
2022-08-07T03:09:00.945Z,100290.56
2022-08-07T03:11:28.421Z,100283.41
2022-08-07T03:13:57.676Z,100282.47
2022-08-07T03:16:30.828Z,100278.38
2022-08-07T03:18:59.207Z,100279.34
2022-08-07T03:21:27.471Z,100278.56
2022-08-07T03:24:20.559Z,100278.63
2022-08-07T03:26:58.556Z,100285.94
2022-08-07T03:29:29.210Z,100274.50
2022-08-07T03:31:56.451Z,100274.50
2022-08-07T03:34:27.197Z,100272.72
2022-08-07T03:36:54.944Z,100280.78
2022-08-07T03:39:46.189Z,100269.19
2022-08-07T03:42:16.514Z,100270.94
2022-08-07T03:44:47.305Z,100272.75
2022-08-07T03:47:20.713Z,100272.75
2022-08-07T03:49:52.475Z,100264.69
2022-08-07T03:52:26.510Z,100275.34
2022-08-07T03:54:58.959Z,100271.75
2022-08-07T03:58:08.765Z,100274.38
2022-08-07T04:00:17.214Z,100272.69
2022-08-07T04:02:49.435Z,100266.47
2022-08-07T04:05:16.039Z,100268.25
2022-08-07T04:07:49.110Z,100263.00
2022-08-07T04:10:19.393Z,100263.94
2022-08-07T04:12:47.362Z,100263.94
2022-08-07T04:15:15.618Z,100268.38
2022-08-07T04:18:56.632Z,100271.03
2022-08-07T04:20:31.288Z,100269.28
2022-08-07T04:23:02.202Z,100280.84
2022-08-07T04:25:35.830Z,100276.31
2022-08-07T04:28:08.134Z,100279.78
2022-08-07T04:30:55.142Z,100278.78
2022-08-07T04:33:24.566Z,100267.03
2022-08-07T04:35:53.230Z,100273.06
2022-08-07T04:38:21.859Z,100271.03
2022-08-07T04:40:51.867Z,100272.59
2022-08-07T04:44:13.118Z,100275.13
2022-08-07T04:46:34.821Z,100276.53
2022-08-07T04:49:38.795Z,100276.72
2022-08-07T04:52:25.112Z,100280.88
2022-08-07T04:58:15.845Z,100285.09
2022-08-07T04:58:29.697Z,100284.94
2022-08-07T05:01:18.117Z,100280.97
2022-08-07T05:04:07.037Z,100286.09
2022-08-07T05:06:56.544Z,100288.44
2022-08-07T05:09:43.487Z,100286.34
2022-08-07T05:12:27.415Z,100291.16
2022-08-07T05:15:04.307Z,100288.06
2022-08-07T05:17:50.969Z,100287.66
2022-08-07T05:20:25.648Z,100295.22
2022-08-07T05:22:57.039Z,100289.38
2022-08-07T05:25:36.623Z,100295.13
2022-08-07T05:28:23.000Z,100290.78
2022-08-07T05:30:52.719Z,100286.81
2022-08-07T05:33:21.229Z,100286.06
2022-08-07T05:35:50.733Z,100289.28
2022-08-07T05:39:01.236Z,100288.19
2022-08-07T05:41:14.431Z,100281.63
2022-08-07T05:44:07.562Z,100286.25
2022-08-07T05:46:37.429Z,100283.94
2022-08-07T05:49:11.961Z,100286.94
2022-08-07T05:51:41.215Z,100281.56
2022-08-07T05:54:30.282Z,100285.13
2022-08-07T05:56:57.152Z,100287.28
2022-08-07T05:59:26.260Z,100286.88
2022-08-07T06:01:54.590Z,100281.19
2022-08-07T06:04:26.280Z,100290.63
2022-08-07T06:07:03.429Z,100283.41
2022-08-07T06:10:03.184Z,100296.38
2022-08-07T06:12:17.067Z,100291.25
2022-08-07T06:14:49.282Z,100289.78
2022-08-07T06:17:19.156Z,100281.13
2022-08-07T06:20:03.652Z,100280.81
2022-08-07T06:22:38.339Z,100277.00
2022-08-07T06:25:06.177Z,100281.91
2022-08-07T06:27:59.891Z,100280.19
2022-08-07T06:30:32.120Z,100277.28
2022-08-07T06:33:03.856Z,100270.63
2022-08-07T06:35:45.578Z,100278.81
2022-08-07T06:38:19.851Z,100269.59
2022-08-07T06:40:50.157Z,100266.09
2022-08-07T06:43:21.199Z,100279.06
2022-08-07T06:45:49.492Z,100284.00
2022-08-07T06:48:16.368Z,100278.97
2022-08-07T06:50:53.367Z,100276.47
2022-08-07T06:55:27.236Z,100274.47
2022-08-07T06:56:15.343Z,100273.63
2022-08-07T07:00:14.030Z,100272.59
2022-08-07T07:01:33.161Z,100276.97
2022-08-07T07:04:32.258Z,100272.28
2022-08-07T07:07:01.106Z,100268.34
2022-08-07T07:09:31.311Z,100270.28
2022-08-07T07:12:18.109Z,100265.75
2022-08-07T07:14:50.193Z,100266.22
2022-08-07T07:17:45.443Z,100275.91
2022-08-07T07:20:20.950Z,100268.13
2022-08-07T07:24:11.242Z,100265.81
2022-08-07T07:26:32.841Z,100260.88
2022-08-07T07:28:48.356Z,100255.09
2022-08-07T07:31:44.125Z,100262.47
2022-08-07T07:34:16.969Z,100253.09
2022-08-07T07:36:47.856Z,100250.31
2022-08-07T07:39:22.039Z,100250.13
2022-08-07T07:42:12.923Z,100247.00
2022-08-07T07:44:41.875Z,100243.19
2022-08-07T07:47:16.092Z,100238.53
2022-08-07T07:50:33.878Z,100233.66
2022-08-07T07:52:41.021Z,100232.34
2022-08-07T07:55:09.446Z,100235.34
2022-08-07T07:57:51.988Z,100234.88
2022-08-07T08:00:21.067Z,100231.69
2022-08-07T08:03:06.283Z,100231.91
2022-08-07T08:05:50.821Z,100237.34
2022-08-07T08:08:34.790Z,100232.56
2022-08-07T08:11:07.982Z,100226.13
2022-08-07T08:13:43.848Z,100237.22
2022-08-07T08:16:25.070Z,100246.97
2022-08-07T08:18:55.661Z,100245.41
2022-08-07T08:21:55.654Z,100242.75
2022-08-07T08:24:57.208Z,100238.69
2022-08-07T08:27:40.891Z,100236.81
2022-08-07T08:30:24.539Z,100233.00
2022-08-07T08:32:59.368Z,100233.97
2022-08-07T08:35:28.758Z,100227.88
2022-08-07T08:38:06.919Z,100223.38
2022-08-07T08:40:47.438Z,100223.50
2022-08-07T08:43:41.837Z,100217.66
2022-08-07T08:46:34.293Z,100220.91
2022-08-07T08:49:32.699Z,100218.91
2022-08-07T08:52:24.754Z,100233.44
2022-08-07T08:55:09.595Z,100235.38
2022-08-07T08:58:06.437Z,100226.66
2022-08-07T09:00:48.645Z,100214.78
2022-08-07T09:03:49.573Z,100212.59
2022-08-07T09:06:42.712Z,100212.13
2022-08-07T09:09:30.095Z,100213.56
2022-08-07T09:12:19.826Z,100220.47
2022-08-07T09:14:58.931Z,100213.69
2022-08-07T09:18:02.111Z,100208.97
2022-08-07T09:20:58.430Z,100209.41
2022-08-07T09:24:32.873Z,100216.59
2022-08-07T09:27:09.142Z,100211.13
2022-08-07T09:30:03.930Z,100218.53
2022-08-07T09:33:05.447Z,100210.31
2022-08-07T09:36:04.424Z,100201.81
2022-08-07T09:39:11.551Z,100207.13
2022-08-07T09:42:05.659Z,100198.22
2022-08-07T09:47:24.305Z,100201.06
2022-08-07T09:48:00.131Z,100193.28
2022-08-07T09:50:40.437Z,100187.69
2022-08-07T09:53:10.005Z,100187.69
2022-08-07T09:56:09.204Z,100188.38
2022-08-07T09:59:02.048Z,100187.47
2022-08-07T10:01:57.804Z,100176.78
2022-08-07T10:04:54.971Z,100173.72
2022-08-07T10:07:52.718Z,100165.94
2022-08-07T10:14:00.199Z,100158.84
2022-08-07T10:16:38.281Z,100158.84
2022-08-07T10:19:42.075Z,100154.59
2022-08-07T10:22:36.775Z,100154.38
2022-08-07T10:25:42.985Z,100146.47
2022-08-07T10:28:38.371Z,100133.09
2022-08-07T10:31:31.437Z,100142.00
2022-08-07T10:34:49.468Z,100142.25
2022-08-07T10:37:59.935Z,100136.06
2022-08-07T10:40:53.891Z,100135.25
2022-08-07T10:43:34.666Z,100125.50
2022-08-07T10:46:09.357Z,100125.13
2022-08-07T10:48:48.684Z,100130.13
2022-08-07T10:51:57.409Z,100116.13
2022-08-07T10:54:22.206Z,100116.28
2022-08-07T10:57:15.669Z,100114.41
2022-08-07T10:59:52.131Z,100107.88
2022-08-07T11:02:38.146Z,100107.88
2022-08-07T11:05:35.812Z,100105.13
2022-08-07T11:08:30.188Z,100098.97
2022-08-07T11:11:28.621Z,100105.19
2022-08-07T11:14:46.196Z,100099.28
2022-08-07T11:17:02.223Z,100093.47
2022-08-07T11:19:40.010Z,100085.59
2022-08-07T11:22:26.394Z,100088.84
2022-08-07T11:25:11.162Z,100094.97
2022-08-07T11:28:01.357Z,100081.59
2022-08-07T11:30:42.244Z,100089.53
2022-08-07T11:33:59.311Z,100084.56
2022-08-07T11:36:30.576Z,100072.09
2022-08-07T11:39:07.171Z,100069.06
2022-08-07T11:42:01.795Z,100064.72
2022-08-07T11:44:51.968Z,100064.53
2022-08-07T11:47:59.223Z,100055.19
2022-08-07T11:50:57.609Z,100052.03
2022-08-07T11:53:27.839Z,100045.44
2022-08-07T11:56:26.628Z,100046.97
2022-08-07T12:00:11.708Z,100043.47
2022-08-07T12:02:36.091Z,100039.06
2022-08-07T12:05:49.217Z,100038.03
2022-08-07T12:08:34.818Z,100036.09
2022-08-07T12:11:21.046Z,100030.22
2022-08-07T12:14:01.444Z,100022.28
2022-08-07T12:16:34.367Z,100032.94
2022-08-07T12:19:12.905Z,100024.66
2022-08-07T12:22:37.957Z,100030.00
2022-08-07T12:26:00.272Z,100019.44
2022-08-07T12:28:09.963Z,100022.00
2022-08-07T12:30:41.204Z,100023.66
2022-08-07T12:33:23.114Z,100012.63
2022-08-07T12:35:57.923Z,100010.03
2022-08-07T12:38:36.966Z,100014.69
2022-08-07T12:41:11.474Z,100010.31
2022-08-07T12:44:01.994Z,100008.25
2022-08-07T12:46:46.238Z,100000.84
2022-08-07T12:49:25.718Z,100002.63
2022-08-07T12:52:17.023Z,99995.28
2022-08-07T12:55:09.510Z,99999.47
2022-08-07T12:57:39.262Z,99994.03
2022-08-07T13:00:49.749Z,99997.28
2022-08-07T13:03:27.536Z,99993.00
2022-08-07T13:07:00.023Z,99993.97
2022-08-07T13:10:21.920Z,99994.72
2022-08-07T13:12:58.423Z,99980.47
2022-08-07T13:16:00.777Z,99977.44
2022-08-07T13:18:28.209Z,99981.38
2022-08-07T13:21:50.207Z,99969.22
2022-08-07T13:24:43.886Z,99969.66
2022-08-07T13:28:05.532Z,99965.25
2022-08-07T13:30:18.955Z,99960.81
2022-08-07T13:34:14.862Z,99962.59
2022-08-07T13:36:30.366Z,99958.31
2022-08-07T13:39:12.776Z,99947.84
2022-08-07T13:41:55.128Z,99946.78
2022-08-07T13:44:26.762Z,99945.88
2022-08-07T13:47:02.913Z,99945.72
2022-08-07T13:50:35.669Z,99946.59
2022-08-07T13:52:39.571Z,99950.31
2022-08-07T13:55:19.583Z,99936.00
2022-08-07T13:58:27.557Z,99931.66
2022-08-07T14:00:58.811Z,99930.97
2022-08-07T14:04:07.115Z,99931.53
2022-08-07T14:06:17.654Z,99926.59
2022-08-07T14:08:53.780Z,99923.00
2022-08-07T14:11:23.105Z,99925.09
2022-08-07T14:14:03.538Z,99928.31
2022-08-07T14:16:39.655Z,99920.03
2022-08-07T14:19:11.248Z,99918.72
2022-08-07T14:22:03.543Z,99921.19
2022-08-07T14:24:41.218Z,99917.19
2022-08-07T14:28:09.407Z,99917.91
2022-08-07T14:30:11.069Z,99920.19
2022-08-07T14:33:04.503Z,99907.66
2022-08-07T14:35:43.448Z,99920.09
2022-08-07T14:38:26.839Z,99904.34
2022-08-07T14:41:03.920Z,99898.13
2022-08-07T14:43:57.059Z,99906.31
2022-08-07T14:46:30.573Z,99910.25
2022-08-07T14:49:00.134Z,99911.91
2022-08-07T14:52:02.834Z,99914.25
2022-08-07T14:57:23.838Z,99910.94
2022-08-07T15:00:03.240Z,99904.97
2022-08-07T15:02:34.596Z,99899.81
2022-08-07T15:05:03.013Z,99899.09
2022-08-07T15:07:50.871Z,99900.16
2022-08-07T15:10:25.987Z,99891.56
2022-08-07T15:12:59.373Z,99890.22
2022-08-07T15:15:38.537Z,99893.13
2022-08-07T15:21:07.936Z,99885.50
2022-08-07T15:23:53.596Z,99887.72
2022-08-07T15:26:35.501Z,99893.94
2022-08-07T15:30:04.385Z,99895.19
2022-08-07T15:31:57.734Z,99892.38
2022-08-07T15:34:33.445Z,99890.91
2022-08-07T15:37:07.038Z,99883.31
2022-08-07T15:39:57.087Z,99886.50
2022-08-07T15:42:48.269Z,99881.16
2022-08-07T15:45:25.137Z,99880.59
2022-08-07T15:48:22.095Z,99878.56
2022-08-07T15:51:08.642Z,99873.47
2022-08-07T15:53:52.897Z,99872.22
2022-08-07T15:56:29.330Z,99876.28
2022-08-07T15:59:04.032Z,99878.09
2022-08-07T16:01:42.716Z,99877.72
2022-08-07T16:04:15.540Z,99869.06
2022-08-07T16:06:59.335Z,99866.38
2022-08-07T16:09:54.506Z,99869.31
2022-08-07T16:12:38.963Z,99868.59
2022-08-07T16:15:57.561Z,99859.47
2022-08-07T16:18:50.404Z,99855.34
2022-08-07T16:22:02.077Z,99861.47
2022-08-07T16:24:52.351Z,99864.22
2022-08-07T16:27:40.033Z,99860.81
2022-08-07T16:30:30.317Z,99865.25
2022-08-07T16:34:05.980Z,99857.28
2022-08-07T16:36:19.680Z,99860.13
2022-08-07T16:39:10.136Z,99857.38
2022-08-07T16:41:54.017Z,99861.31
2022-08-07T16:45:15.486Z,99860.09
2022-08-07T16:48:02.641Z,99853.41
2022-08-07T16:51:20.568Z,99858.13
2022-08-07T16:54:06.047Z,99866.31
2022-08-07T16:56:53.570Z,99857.59
2022-08-07T16:59:46.073Z,99859.06
2022-08-07T17:02:53.564Z,99860.38
2022-08-07T17:06:01.986Z,99857.69
2022-08-07T17:08:09.135Z,99862.22
2022-08-07T17:10:54.752Z,99861.09
2022-08-07T17:14:17.460Z,99860.75
2022-08-07T17:16:29.294Z,99859.34
2022-08-07T17:20:00.760Z,99860.63
2022-08-07T17:22:16.756Z,99862.72
2022-08-07T17:25:47.550Z,99858.16
2022-08-07T17:28:20.028Z,99860.47
2022-08-07T17:31:00.656Z,99856.47
2022-08-07T17:34:17.914Z,99860.09
2022-08-07T17:36:57.896Z,99857.63
2022-08-07T17:39:58.187Z,99859.22
2022-08-07T17:42:35.922Z,99858.81
2022-08-07T17:45:30.733Z,99859.53
2022-08-07T17:48:15.719Z,99861.97
2022-08-07T17:51:59.733Z,99852.16
2022-08-07T17:54:53.963Z,99857.03
2022-08-07T17:57:59.052Z,99856.28
2022-08-07T18:00:49.021Z,99852.06
2022-08-07T18:03:25.574Z,99859.81
2022-08-07T18:06:06.679Z,99857.91
2022-08-07T18:09:01.328Z,99857.88
2022-08-07T18:12:16.639Z,99858.13
2022-08-07T18:14:46.037Z,99853.56
2022-08-07T18:18:45.696Z,99856.97
2022-08-07T18:21:03.253Z,99856.94
2022-08-07T18:23:43.307Z,99852.53
2022-08-07T18:26:17.434Z,99858.88
2022-08-07T18:30:08.388Z,99855.88
2022-08-07T18:32:20.482Z,99858.75
2022-08-07T18:35:27.836Z,99862.56
2022-08-07T18:38:56.528Z,99879.53
2022-08-07T18:41:45.017Z,99868.66
2022-08-07T18:44:29.499Z,99873.22
2022-08-07T18:47:22.672Z,99874.84
2022-08-07T18:50:38.533Z,99887.25
2022-08-07T18:53:16.428Z,99887.72
2022-08-07T18:56:01.291Z,99885.19
2022-08-07T18:58:36.175Z,99892.25
2022-08-07T19:02:18.944Z,99900.47
2022-08-07T19:04:03.883Z,99896.72
2022-08-07T19:06:48.389Z,99907.06
2022-08-07T19:09:56.960Z,99914.00
2022-08-07T19:12:34.345Z,99912.75
2022-08-07T19:16:03.251Z,99919.88
2022-08-07T19:18:34.532Z,99917.53
2022-08-07T19:21:09.629Z,99917.19
2022-08-07T19:23:59.366Z,99921.22
2022-08-07T19:26:55.574Z,99916.22
2022-08-07T19:31:05.262Z,99911.97
2022-08-07T19:32:39.543Z,99918.72
2022-08-07T19:35:11.368Z,99926.25
2022-08-07T19:37:56.894Z,99917.53
2022-08-07T19:40:31.349Z,99921.56
2022-08-07T19:43:02.376Z,99922.00
2022-08-07T19:46:05.614Z,99925.34
2022-08-07T19:48:24.182Z,99933.34
2022-08-07T19:50:53.413Z,99936.78
2022-08-07T19:54:31.422Z,99928.50
2022-08-07T19:56:55.218Z,99930.97
2022-08-07T19:58:58.056Z,99937.72
2022-08-07T20:01:57.019Z,99939.88
2022-08-07T20:04:32.263Z,99939.13
2022-08-07T20:07:09.252Z,99942.47
2022-08-07T20:10:37.865Z,99944.06
2022-08-07T20:12:39.375Z,99948.16
2022-08-07T20:15:18.900Z,99943.78
2022-08-07T20:18:01.383Z,99944.94
2022-08-07T20:20:31.703Z,99953.41
2022-08-07T20:23:02.068Z,99948.22
2022-08-07T20:25:52.979Z,99948.41
2022-08-07T20:28:20.703Z,99948.53
2022-08-07T20:30:57.138Z,99955.19
2022-08-07T20:33:37.921Z,99962.41
2022-08-07T20:36:07.731Z,99954.81
2022-08-07T20:38:35.801Z,99958.13
2022-08-07T20:41:26.529Z,99962.19
2022-08-07T20:43:57.511Z,99966.53
2022-08-07T20:46:33.415Z,99961.69
2022-08-07T20:50:00.114Z,99956.63
2022-08-07T20:51:50.885Z,99957.13
2022-08-07T20:54:31.742Z,99953.97
2022-08-07T20:57:03.265Z,99956.97
2022-08-07T21:00:06.191Z,99953.94
2022-08-07T21:02:41.273Z,99963.28
2022-08-07T21:05:42.951Z,99965.56
2022-08-07T21:08:16.378Z,99967.78
2022-08-07T21:10:50.671Z,99977.22
2022-08-07T21:13:24.680Z,99965.00
2022-08-07T21:16:11.195Z,99962.81
2022-08-07T21:18:40.980Z,99966.84
2022-08-07T21:21:09.310Z,99971.72
2022-08-07T21:24:10.861Z,99970.25
2022-08-07T21:26:48.393Z,99970.50
2022-08-07T21:29:30.440Z,99973.31
2022-08-07T21:32:46.661Z,99974.44
2022-08-07T21:35:08.083Z,99979.66
2022-08-07T21:38:27.450Z,99980.09
2022-08-07T21:41:04.884Z,99983.91
2022-08-07T21:43:56.765Z,99986.91
2022-08-07T21:46:36.426Z,99987.47
2022-08-07T21:50:01.064Z,99980.00
2022-08-07T21:52:54.692Z,99981.53
2022-08-07T21:55:28.242Z,99975.34
2022-08-07T21:58:06.684Z,99985.25
2022-08-07T22:00:34.831Z,99981.78
2022-08-07T22:03:07.402Z,99977.44
2022-08-07T22:05:51.525Z,99990.03
2022-08-07T22:08:24.787Z,99989.34
2022-08-07T22:10:57.842Z,99984.47
2022-08-07T22:13:52.039Z,99978.41
2022-08-07T22:16:43.409Z,99988.22
2022-08-07T22:19:16.026Z,99990.94
2022-08-07T22:22:21.445Z,99984.75
2022-08-07T22:25:12.999Z,99985.63
2022-08-07T22:28:19.836Z,99989.25
2022-08-07T22:30:52.092Z,99990.22
2022-08-07T22:33:53.679Z,99983.31
2022-08-07T22:36:29.385Z,99986.25
2022-08-07T22:39:01.154Z,99984.69
2022-08-07T22:42:03.680Z,99981.09
2022-08-07T22:44:38.114Z,99981.16
2022-08-07T22:48:31.694Z,99983.06
2022-08-07T22:51:21.743Z,99987.78
2022-08-07T22:54:05.532Z,99991.75
2022-08-07T22:57:02.949Z,99999.94
2022-08-07T23:00:00.385Z,99996.44
2022-08-07T23:02:54.428Z,99998.22
2022-08-07T23:06:07.470Z,99994.75
2022-08-07T23:08:46.786Z,99992.13
2022-08-07T23:11:46.582Z,99995.06
2022-08-07T23:14:28.037Z,99996.16
2022-08-07T23:17:41.797Z,100000.88
2022-08-07T23:20:53.429Z,100001.16
2022-08-07T23:24:06.120Z,99999.94
2022-08-07T23:26:37.076Z,100001.25
2022-08-07T23:29:17.044Z,100006.84
2022-08-07T23:34:21.310Z,100009.53
2022-08-07T23:35:12.283Z,100002.41
2022-08-07T23:38:10.823Z,99999.94
2022-08-07T23:40:52.922Z,100003.88
2022-08-07T23:43:41.062Z,100007.72
2022-08-07T23:46:36.639Z,100007.09
2022-08-07T23:49:18.182Z,100002.84
2022-08-07T23:52:58.136Z,100021.06
2022-08-07T23:54:46.474Z,100007.09
2022-08-07T23:57:30.461Z,100013.78
